Airfield :
LOGIN :

Register | Disclaimer

   EN    FR    IT 

 










Legend :    VFR   Marginal VFR   IFR   Intensive IFR   Very Intensive IFR
Visi :
Ceiling :
>= 8 km
>= 3000ft
5 to 8 km
1000 to 3000 ft
1500m to 5 km
500 to 1000 ft
800 to 1500m
200 to 500 ft
< 800m
< 200 ft
Symbols :   Thunderstorms  Fog  Heavy snow  Heavy precipitations  Wind > 20 kt
SIGMETs :     Misc.  Thunderstorms  Icing  Turbulence  Mountain Waves  Volcanic Ashes







- Airport Elevation : 187 ft


ETNW - Wunstorf AB

CURRENT METAR :
  • 190920Z 05014KT 9999 BKN015 BKN060 05/02 Q1022 WHT BLU TEMPO GRN

EXPIRED METARs :
  • 190847Z 05011KT 9999 BKN015 BKN060 05/03 Q1023 WHT BLU TEMPO GRN
  • 190820Z 04012KT 9999 SCT015 BKN060 05/03 Q1023 BLU BLU TEMPO GRN
  • 190720Z 05011KT 9999 BKN015 BKN050 05/03 Q1023 WHT BLU TEMPO GRN

TAF TAF ETNW
Valid from the 19 at 06:00 until the 20 at 06:00 UTC


190520Z 1906/2006 06012KT 9999 NSW SCT012 BKN025
TEMPO 1906/1909 07012G22KT 8000 NSW BKN007
TEMPO 1909/1921 07015G25KT 5000 -SHRA BKN010TCU
BECMG 1919/1921 08015G25KT 9999 NSW BKN015 BKN070
PROB30 1921/2006 07012G22KT 3000 -RASN BKN006 BY ETGL
No reported NOTAMs for that airfield.
1 SIGMET reported for the Bremen FIR (EDWW) :
 
Severe icing
EDWW SIGMET 1 VALID 190845/191045 EDZH
EDWW BREMEN FIR SEV ICE OBS S OF N5230 AND E OF E00840 2000FT/FL060 STNR WKN=



MET'MAP, your aeronautical weather chart ! - Copyright ORBIFLY December 2007 - Disclaimer

ORBIFLY MET'MAP TEAM :

Programming & Development : Alexandra Zaïnal
Concept & Development : Baudouin d'Aumeries
Co-Development & Prog : Marc-Olivier Méhu
Technical & hardware support : Manuel Goepfert

Contact : metmap@orbifly.com




SOURCES & CREDITS :

   NOAA